sensor_id;sensor_type;location;lat;lon;timestamp;temperature;humidity
10129;DHT22;5104;50.720;7.044;2023-06-22T00:01:17;21.10;1.00
10129;DHT22;5104;50.720;7.044;2023-06-22T00:03:44;21.10;99.90
10129;DHT22;5104;50.720;7.044;2023-06-22T00:06:10;21.20;1.00
10129;DHT22;5104;50.720;7.044;2023-06-22T00:08:37;21.20;1.00
10129;DHT22;5104;50.720;7.044;2023-06-22T00:11:04;21.20;1.00
10129;DHT22;5104;50.720;7.044;2023-06-22T00:13:32;21.20;1.00
10129;DHT22;5104;50.720;7.044;2023-06-22T00:15:59;21.30;1.00
10129;DHT22;5104;50.720;7.044;2023-06-22T00:18:26;21.20;1.00
10129;DHT22;5104;50.720;7.044;2023-06-22T00:23:23;21.30;1.00
10129;DHT22;5104;50.720;7.044;2023-06-22T00:25:51;21.30;1.00
10129;DHT22;5104;50.720;7.044;2023-06-22T00:28:18;21.30;1.00
10129;DHT22;5104;50.720;7.044;2023-06-22T00:30:46;21.30;1.00
10129;DHT22;5104;50.720;7.044;2023-06-22T00:33:14;21.30;1.00
10129;DHT22;5104;50.720;7.044;2023-06-22T00:35:41;21.30;1.00
10129;DHT22;5104;50.720;7.044;2023-06-22T00:38:08;21.30;99.90
10129;DHT22;5104;50.720;7.044;2023-06-22T00:40:35;21.30;1.00
10129;DHT22;5104;50.720;7.044;2023-06-22T00:43:02;21.20;1.00
10129;DHT22;5104;50.720;7.044;2023-06-22T00:45:30;21.20;99.90
10129;DHT22;5104;50.720;7.044;2023-06-22T00:47:59;21.20;99.90
10129;DHT22;5104;50.720;7.044;2023-06-22T00:50:28;21.20;1.00
10129;DHT22;5104;50.720;7.044;2023-06-22T00:53:00;21.20;1.00
10129;DHT22;5104;50.720;7.044;2023-06-22T00:55:29;21.20;1.00
10129;DHT22;5104;50.720;7.044;2023-06-22T00:57:56;21.20;1.00
10129;DHT22;5104;50.720;7.044;2023-06-22T01:00:24;21.10;1.00
10129;DHT22;5104;50.720;7.044;2023-06-22T01:02:52;21.10;1.00
10129;DHT22;5104;50.720;7.044;2023-06-22T01:05:21;21.10;1.00
10129;DHT22;5104;50.720;7.044;2023-06-22T01:08:07;21.10;1.00
10129;DHT22;5104;50.720;7.044;2023-06-22T01:10:40;21.10;1.00
10129;DHT22;5104;50.720;7.044;2023-06-22T01:13:16;21.10;1.00
10129;DHT22;5104;50.720;7.044;2023-06-22T01:15:45;21.10;1.00
10129;DHT22;5104;50.720;7.044;2023-06-22T01:18:17;21.10;99.90
10129;DHT22;5104;50.720;7.044;2023-06-22T01:20:47;21.10;1.00
10129;DHT22;5104;50.720;7.044;2023-06-22T01:23:24;21.10;1.00
10129;DHT22;5104;50.720;7.044;2023-06-22T01:25:59;21.10;1.00
10129;DHT22;5104;50.720;7.044;2023-06-22T01:28:47;21.10;1.00
10129;DHT22;5104;50.720;7.044;2023-06-22T01:31:16;21.10;1.00
10129;DHT22;5104;50.720;7.044;2023-06-22T01:33:46;21.10;1.00
10129;DHT22;5104;50.720;7.044;2023-06-22T01:36:16;21.10;1.00
10129;DHT22;5104;50.720;7.044;2023-06-22T01:38:45;21.10;1.00
10129;DHT22;5104;50.720;7.044;2023-06-22T01:41:12;21.10;1.00
10129;DHT22;5104;50.720;7.044;2023-06-22T01:43:40;21.10;1.00
10129;DHT22;5104;50.720;7.044;2023-06-22T01:46:08;21.10;1.00
10129;DHT22;5104;50.720;7.044;2023-06-22T01:48:35;21.10;99.90
10129;DHT22;5104;50.720;7.044;2023-06-22T01:51:02;21.10;99.90
10129;DHT22;5104;50.720;7.044;2023-06-22T01:53:29;21.00;99.90
10129;DHT22;5104;50.720;7.044;2023-06-22T01:55:56;21.00;99.90
10129;DHT22;5104;50.720;7.044;2023-06-22T01:58:26;21.00;99.90
10129;DHT22;5104;50.720;7.044;2023-06-22T02:00:56;21.00;99.90
10129;DHT22;5104;50.720;7.044;2023-06-22T02:03:30;20.90;1.00
10129;DHT22;5104;50.720;7.044;2023-06-22T02:06:03;20.90;1.00
10129;DHT22;5104;50.720;7.044;2023-06-22T02:08:37;20.90;99.90
10129;DHT22;5104;50.720;7.044;2023-06-22T02:11:06;20.90;99.90
10129;DHT22;5104;50.720;7.044;2023-06-22T02:13:35;20.90;1.00
10129;DHT22;5104;50.720;7.044;2023-06-22T02:16:03;20.90;99.90
10129;DHT22;5104;50.720;7.044;2023-06-22T02:18:31;20.80;1.00
10129;DHT22;5104;50.720;7.044;2023-06-22T02:21:01;20.90;99.90
10129;DHT22;5104;50.720;7.044;2023-06-22T02:23:28;20.80;99.90
10129;DHT22;5104;50.720;7.044;2023-06-22T02:25:54;20.80;99.90
10129;DHT22;5104;50.720;7.044;2023-06-22T02:28:21;20.80;1.00
10129;DHT22;5104;50.720;7.044;2023-06-22T02:30:48;20.80;99.90
10129;DHT22;5104;50.720;7.044;2023-06-22T02:33:15;20.80;1.00
10129;DHT22;5104;50.720;7.044;2023-06-22T02:35:43;20.80;1.00
10129;DHT22;5104;50.720;7.044;2023-06-22T02:38:13;20.80;1.00
10129;DHT22;5104;50.720;7.044;2023-06-22T02:40:40;20.80;99.90
10129;DHT22;5104;50.720;7.044;2023-06-22T02:43:06;20.80;15.20
10129;DHT22;5104;50.720;7.044;2023-06-22T02:45:33;20.80;1.00
10129;DHT22;5104;50.720;7.044;2023-06-22T02:48:00;20.80;99.90
10129;DHT22;5104;50.720;7.044;2023-06-22T02:50:27;20.80;1.00
10129;DHT22;5104;50.720;7.044;2023-06-22T02:52:55;20.80;1.00
10129;DHT22;5104;50.720;7.044;2023-06-22T02:55:24;20.90;1.00
10129;DHT22;5104;50.720;7.044;2023-06-22T02:57:50;20.90;1.00
10129;DHT22;5104;50.720;7.044;2023-06-22T03:00:19;20.80;99.90
10129;DHT22;5104;50.720;7.044;2023-06-22T03:02:48;20.80;99.90
10129;DHT22;5104;50.720;7.044;2023-06-22T03:05:15;20.80;1.00
10129;DHT22;5104;50.720;7.044;2023-06-22T03:07:43;20.60;99.90
10129;DHT22;5104;50.720;7.044;2023-06-22T03:10:13;20.60;99.90
10129;DHT22;5104;50.720;7.044;2023-06-22T03:12:41;20.50;91.60
10129;DHT22;5104;50.720;7.044;2023-06-22T03:15:10;20.40;1.00
10129;DHT22;5104;50.720;7.044;2023-06-22T03:17:37;20.40;99.90
10129;DHT22;5104;50.720;7.044;2023-06-22T03:20:06;20.30;99.90
10129;DHT22;5104;50.720;7.044;2023-06-22T03:22:34;20.20;99.90
10129;DHT22;5104;50.720;7.044;2023-06-22T03:25:02;20.20;99.90
10129;DHT22;5104;50.720;7.044;2023-06-22T03:27:31;20.20;99.90
10129;DHT22;5104;50.720;7.044;2023-06-22T03:29:58;20.10;99.90
10129;DHT22;5104;50.720;7.044;2023-06-22T03:32:25;20.10;99.90
10129;DHT22;5104;50.720;7.044;2023-06-22T03:34:53;20.10;99.90
10129;DHT22;5104;50.720;7.044;2023-06-22T03:37:24;20.00;99.90
10129;DHT22;5104;50.720;7.044;2023-06-22T03:39:51;20.00;99.90
10129;DHT22;5104;50.720;7.044;2023-06-22T03:42:18;20.00;99.90
10129;DHT22;5104;50.720;7.044;2023-06-22T03:44:46;20.00;99.90
10129;DHT22;5104;50.720;7.044;2023-06-22T03:47:13;20.00;99.90
10129;DHT22;5104;50.720;7.044;2023-06-22T03:49:40;20.00;99.90
10129;DHT22;5104;50.720;7.044;2023-06-22T03:52:07;20.00;99.90
10129;DHT22;5104;50.720;7.044;2023-06-22T03:54:36;20.00;99.90
10129;DHT22;5104;50.720;7.044;2023-06-22T03:57:03;19.90;99.90
10129;DHT22;5104;50.720;7.044;2023-06-22T03:59:30;19.90;99.90
10129;DHT22;5104;50.720;7.044;2023-06-22T04:01:59;20.00;99.90
10129;DHT22;5104;50.720;7.044;2023-06-22T04:04:26;20.00;99.90
10129;DHT22;5104;50.720;7.044;2023-06-22T04:06:53;20.20;99.90
10129;DHT22;5104;50.720;7.044;2023-06-22T04:09:20;20.20;99.90
10129;DHT22;5104;50.720;7.044;2023-06-22T04:11:47;20.30;99.90
10129;DHT22;5104;50.720;7.044;2023-06-22T04:14:14;20.20;99.90
10129;DHT22;5104;50.720;7.044;2023-06-22T04:16:41;20.30;99.90
10129;DHT22;5104;50.720;7.044;2023-06-22T04:19:09;20.30;99.90
10129;DHT22;5104;50.720;7.044;2023-06-22T04:21:41;20.30;99.90
10129;DHT22;5104;50.720;7.044;2023-06-22T04:24:08;20.30;99.90
10129;DHT22;5104;50.720;7.044;2023-06-22T04:26:35;20.40;99.90
10129;DHT22;5104;50.720;7.044;2023-06-22T04:29:03;20.40;99.90
10129;DHT22;5104;50.720;7.044;2023-06-22T04:31:31;20.50;99.90
10129;DHT22;5104;50.720;7.044;2023-06-22T04:34:02;20.50;99.90
10129;DHT22;5104;50.720;7.044;2023-06-22T04:36:34;20.60;99.90
10129;DHT22;5104;50.720;7.044;2023-06-22T04:39:04;20.60;99.90
10129;DHT22;5104;50.720;7.044;2023-06-22T04:41:31;20.60;99.90
10129;DHT22;5104;50.720;7.044;2023-06-22T04:44:08;20.60;99.90
10129;DHT22;5104;50.720;7.044;2023-06-22T04:46:34;20.60;99.90
10129;DHT22;5104;50.720;7.044;2023-06-22T04:49:04;20.60;99.90
10129;DHT22;5104;50.720;7.044;2023-06-22T04:51:37;20.50;99.90
10129;DHT22;5104;50.720;7.044;2023-06-22T04:54:04;20.50;99.90
10129;DHT22;5104;50.720;7.044;2023-06-22T04:56:31;20.50;99.90
10129;DHT22;5104;50.720;7.044;2023-06-22T04:58:58;20.50;99.90
10129;DHT22;5104;50.720;7.044;2023-06-22T05:01:25;20.50;99.90
10129;DHT22;5104;50.720;7.044;2023-06-22T05:03:52;20.50;99.90
10129;DHT22;5104;50.720;7.044;2023-06-22T05:06:21;20.50;99.90
10129;DHT22;5104;50.720;7.044;2023-06-22T05:08:52;20.60;99.90
10129;DHT22;5104;50.720;7.044;2023-06-22T05:11:23;20.60;99.90
10129;DHT22;5104;50.720;7.044;2023-06-22T05:13:50;20.60;99.90
10129;DHT22;5104;50.720;7.044;2023-06-22T05:16:17;20.70;99.90
10129;DHT22;5104;50.720;7.044;2023-06-22T05:18:48;20.80;99.90
10129;DHT22;5104;50.720;7.044;2023-06-22T05:21:15;20.90;99.90
10129;DHT22;5104;50.720;7.044;2023-06-22T05:23:42;21.10;1.00
10129;DHT22;5104;50.720;7.044;2023-06-22T05:26:10;21.20;1.00
10129;DHT22;5104;50.720;7.044;2023-06-22T05:28:37;21.40;99.90
10129;DHT22;5104;50.720;7.044;2023-06-22T05:31:04;21.40;1.00
10129;DHT22;5104;50.720;7.044;2023-06-22T05:33:31;21.70;87.30
10129;DHT22;5104;50.720;7.044;2023-06-22T05:35:58;22.00;1.00
10129;DHT22;5104;50.720;7.044;2023-06-22T05:38:24;22.30;99.90
10129;DHT22;5104;50.720;7.044;2023-06-22T05:40:51;22.50;99.90
10129;DHT22;5104;50.720;7.044;2023-06-22T05:43:19;22.70;1.00
10129;DHT22;5104;50.720;7.044;2023-06-22T05:45:46;22.90;1.00
10129;DHT22;5104;50.720;7.044;2023-06-22T05:48:13;23.00;1.00
10129;DHT22;5104;50.720;7.044;2023-06-22T05:50:41;23.30;99.90
10129;DHT22;5104;50.720;7.044;2023-06-22T05:53:08;23.30;1.00
10129;DHT22;5104;50.720;7.044;2023-06-22T05:55:35;23.30;99.90
10129;DHT22;5104;50.720;7.044;2023-06-22T05:58:02;23.20;1.00
10129;DHT22;5104;50.720;7.044;2023-06-22T06:00:31;23.10;1.00
10129;DHT22;5104;50.720;7.044;2023-06-22T06:02:58;23.20;1.00
10129;DHT22;5104;50.720;7.044;2023-06-22T06:05:28;23.30;1.00
10129;DHT22;5104;50.720;7.044;2023-06-22T06:07:55;23.40;99.90
10129;DHT22;5104;50.720;7.044;2023-06-22T06:10:22;23.40;99.90
10129;DHT22;5104;50.720;7.044;2023-06-22T06:12:49;23.50;1.00
10129;DHT22;5104;50.720;7.044;2023-06-22T06:15:16;23.60;1.00
10129;DHT22;5104;50.720;7.044;2023-06-22T06:17:48;23.50;1.00
10129;DHT22;5104;50.720;7.044;2023-06-22T06:20:15;23.50;1.00
10129;DHT22;5104;50.720;7.044;2023-06-22T06:22:42;23.60;1.00
10129;DHT22;5104;50.720;7.044;2023-06-22T06:25:09;23.80;99.90
10129;DHT22;5104;50.720;7.044;2023-06-22T06:27:41;23.80;99.90
10129;DHT22;5104;50.720;7.044;2023-06-22T06:30:09;23.80;99.90
10129;DHT22;5104;50.720;7.044;2023-06-22T06:32:36;23.60;99.90
10129;DHT22;5104;50.720;7.044;2023-06-22T06:35:06;23.40;1.00
10129;DHT22;5104;50.720;7.044;2023-06-22T06:37:36;23.30;1.00
10129;DHT22;5104;50.720;7.044;2023-06-22T06:40:04;23.50;1.00
10129;DHT22;5104;50.720;7.044;2023-06-22T06:42:33;23.50;1.00
10129;DHT22;5104;50.720;7.044;2023-06-22T06:45:00;23.60;99.90
10129;DHT22;5104;50.720;7.044;2023-06-22T06:47:27;23.70;99.90
10129;DHT22;5104;50.720;7.044;2023-06-22T06:49:53;23.70;99.90
10129;DHT22;5104;50.720;7.044;2023-06-22T06:52:22;23.70;1.00
10129;DHT22;5104;50.720;7.044;2023-06-22T06:54:48;23.60;1.00
10129;DHT22;5104;50.720;7.044;2023-06-22T06:57:17;23.80;1.00
10129;DHT22;5104;50.720;7.044;2023-06-22T06:59:44;23.80;99.90
10129;DHT22;5104;50.720;7.044;2023-06-22T07:02:11;23.80;1.00
10129;DHT22;5104;50.720;7.044;2023-06-22T07:04:38;24.10;1.00
10129;DHT22;5104;50.720;7.044;2023-06-22T07:07:05;24.20;1.00
10129;DHT22;5104;50.720;7.044;2023-06-22T07:09:33;24.40;1.00
10129;DHT22;5104;50.720;7.044;2023-06-22T07:12:00;24.70;99.90
10129;DHT22;5104;50.720;7.044;2023-06-22T07:14:27;24.80;99.90
10129;DHT22;5104;50.720;7.044;2023-06-22T07:16:54;24.90;1.00
10129;DHT22;5104;50.720;7.044;2023-06-22T07:19:24;24.80;1.00
10129;DHT22;5104;50.720;7.044;2023-06-22T07:21:52;24.90;26.30
10129;DHT22;5104;50.720;7.044;2023-06-22T07:24:19;25.10;3.20
10129;DHT22;5104;50.720;7.044;2023-06-22T07:26:48;25.00;99.90
10129;DHT22;5104;50.720;7.044;2023-06-22T07:29:16;25.10;57.50
10129;DHT22;5104;50.720;7.044;2023-06-22T07:31:43;25.10;1.00
10129;DHT22;5104;50.720;7.044;2023-06-22T07:34:10;25.40;1.00
10129;DHT22;5104;50.720;7.044;2023-06-22T07:36:37;25.60;1.00
10129;DHT22;5104;50.720;7.044;2023-06-22T07:39:04;25.90;1.00
10129;DHT22;5104;50.720;7.044;2023-06-22T07:41:32;26.00;1.00
10129;DHT22;5104;50.720;7.044;2023-06-22T07:44:01;26.10;99.90
10129;DHT22;5104;50.720;7.044;2023-06-22T07:46:28;26.00;1.00
10129;DHT22;5104;50.720;7.044;2023-06-22T07:48:55;26.20;99.90
10129;DHT22;5104;50.720;7.044;2023-06-22T07:51:23;26.40;99.90
10129;DHT22;5104;50.720;7.044;2023-06-22T07:53:50;26.30;1.00
10129;DHT22;5104;50.720;7.044;2023-06-22T07:56:17;25.90;1.00
10129;DHT22;5104;50.720;7.044;2023-06-22T07:58:44;26.00;99.90
10129;DHT22;5104;50.720;7.044;2023-06-22T08:01:13;26.00;1.00
10129;DHT22;5104;50.720;7.044;2023-06-22T08:03:40;25.90;1.00
10129;DHT22;5104;50.720;7.044;2023-06-22T08:06:07;25.90;1.00
10129;DHT22;5104;50.720;7.044;2023-06-22T08:08:35;25.80;1.00
10129;DHT22;5104;50.720;7.044;2023-06-22T08:11:02;26.00;1.00
10129;DHT22;5104;50.720;7.044;2023-06-22T08:13:29;25.80;1.00
10129;DHT22;5104;50.720;7.044;2023-06-22T08:15:56;26.00;1.00
10129;DHT22;5104;50.720;7.044;2023-06-22T08:18:24;26.00;1.00
10129;DHT22;5104;50.720;7.044;2023-06-22T08:20:51;26.10;1.00
10129;DHT22;5104;50.720;7.044;2023-06-22T08:23:18;26.00;1.00
10129;DHT22;5104;50.720;7.044;2023-06-22T08:25:45;26.10;1.00
10129;DHT22;5104;50.720;7.044;2023-06-22T08:28:11;26.30;1.00
10129;DHT22;5104;50.720;7.044;2023-06-22T08:30:39;26.40;1.00
10129;DHT22;5104;50.720;7.044;2023-06-22T08:33:06;26.60;99.90
10129;DHT22;5104;50.720;7.044;2023-06-22T08:35:34;26.70;99.90
10129;DHT22;5104;50.720;7.044;2023-06-22T08:38:01;26.90;99.90
10129;DHT22;5104;50.720;7.044;2023-06-22T08:40:28;27.00;99.90
10129;DHT22;5104;50.720;7.044;2023-06-22T08:42:56;27.00;99.90
10129;DHT22;5104;50.720;7.044;2023-06-22T08:45:22;27.00;99.90
10129;DHT22;5104;50.720;7.044;2023-06-22T08:47:49;27.20;99.90
10129;DHT22;5104;50.720;7.044;2023-06-22T08:50:16;27.10;99.90
10129;DHT22;5104;50.720;7.044;2023-06-22T08:52:45;27.00;99.90
10129;DHT22;5104;50.720;7.044;2023-06-22T08:55:12;27.10;99.90
10129;DHT22;5104;50.720;7.044;2023-06-22T08:57:39;27.30;99.90
10129;DHT22;5104;50.720;7.044;2023-06-22T09:00:08;27.50;99.90
10129;DHT22;5104;50.720;7.044;2023-06-22T09:02:42;27.60;99.90
10129;DHT22;5104;50.720;7.044;2023-06-22T09:05:09;27.70;99.90
10129;DHT22;5104;50.720;7.044;2023-06-22T09:07:36;27.80;26.50
10129;DHT22;5104;50.720;7.044;2023-06-22T09:10:06;27.80;99.90
10129;DHT22;5104;50.720;7.044;2023-06-22T09:12:33;27.80;99.90
10129;DHT22;5104;50.720;7.044;2023-06-22T09:15:03;27.90;99.90
10129;DHT22;5104;50.720;7.044;2023-06-22T09:17:30;28.20;5.70
10129;DHT22;5104;50.720;7.044;2023-06-22T09:19:57;28.60;1.00
10129;DHT22;5104;50.720;7.044;2023-06-22T09:22:24;28.70;1.00
10129;DHT22;5104;50.720;7.044;2023-06-22T09:24:55;28.90;1.00
10129;DHT22;5104;50.720;7.044;2023-06-22T09:27:23;29.10;1.00
10129;DHT22;5104;50.720;7.044;2023-06-22T09:29:50;29.20;1.00
10129;DHT22;5104;50.720;7.044;2023-06-22T09:32:17;29.00;1.00
10129;DHT22;5104;50.720;7.044;2023-06-22T09:34:44;29.30;1.00
10129;DHT22;5104;50.720;7.044;2023-06-22T09:37:11;29.50;1.00
10129;DHT22;5104;50.720;7.044;2023-06-22T09:39:38;29.70;1.00
10129;DHT22;5104;50.720;7.044;2023-06-22T09:42:05;30.00;1.00
10129;DHT22;5104;50.720;7.044;2023-06-22T09:44:34;30.20;1.00
10129;DHT22;5104;50.720;7.044;2023-06-22T09:47:01;30.10;1.00
10129;DHT22;5104;50.720;7.044;2023-06-22T09:49:28;29.60;1.00
10129;DHT22;5104;50.720;7.044;2023-06-22T09:51:55;29.30;1.00
10129;DHT22;5104;50.720;7.044;2023-06-22T09:54:22;29.10;1.00
10129;DHT22;5104;50.720;7.044;2023-06-22T09:56:49;28.90;1.00
10129;DHT22;5104;50.720;7.044;2023-06-22T09:59:16;28.70;1.00
10129;DHT22;5104;50.720;7.044;2023-06-22T10:01:44;28.40;1.00
10129;DHT22;5104;50.720;7.044;2023-06-22T10:04:11;28.10;11.40
10129;DHT22;5104;50.720;7.044;2023-06-22T10:06:38;27.90;1.00
10129;DHT22;5104;50.720;7.044;2023-06-22T10:09:06;27.80;99.90
10129;DHT22;5104;50.720;7.044;2023-06-22T10:11:33;27.50;99.90
10129;DHT22;5104;50.720;7.044;2023-06-22T10:14:00;27.30;1.00
10129;DHT22;5104;50.720;7.044;2023-06-22T10:16:30;27.20;99.90
10129;DHT22;5104;50.720;7.044;2023-06-22T10:18:59;27.20;99.90
10129;DHT22;5104;50.720;7.044;2023-06-22T10:21:26;27.00;1.00
10129;DHT22;5104;50.720;7.044;2023-06-22T10:23:54;26.80;1.00
10129;DHT22;5104;50.720;7.044;2023-06-22T10:26:21;26.70;1.00
10129;DHT22;5104;50.720;7.044;2023-06-22T10:28:48;26.50;1.00
10129;DHT22;5104;50.720;7.044;2023-06-22T10:31:15;26.30;99.90
10129;DHT22;5104;50.720;7.044;2023-06-22T10:33:42;26.10;99.90
10129;DHT22;5104;50.720;7.044;2023-06-22T10:36:11;26.10;99.90
10129;DHT22;5104;50.720;7.044;2023-06-22T10:38:38;26.00;99.90
10129;DHT22;5104;50.720;7.044;2023-06-22T10:41:05;25.90;1.00
10129;DHT22;5104;50.720;7.044;2023-06-22T10:43:32;25.70;1.00
10129;DHT22;5104;50.720;7.044;2023-06-22T10:45:59;25.30;1.00
10129;DHT22;5104;50.720;7.044;2023-06-22T10:48:26;25.10;1.00
10129;DHT22;5104;50.720;7.044;2023-06-22T10:50:53;24.70;1.00
10129;DHT22;5104;50.720;7.044;2023-06-22T10:53:21;24.20;1.00
10129;DHT22;5104;50.720;7.044;2023-06-22T10:55:48;23.90;99.90
10129;DHT22;5104;50.720;7.044;2023-06-22T10:58:17;23.70;99.90
10129;DHT22;5104;50.720;7.044;2023-06-22T11:00:44;23.70;32.40
10129;DHT22;5104;50.720;7.044;2023-06-22T11:03:11;23.50;99.90
10129;DHT22;5104;50.720;7.044;2023-06-22T11:05:39;23.50;99.90
10129;DHT22;5104;50.720;7.044;2023-06-22T11:08:07;23.50;99.90
10129;DHT22;5104;50.720;7.044;2023-06-22T11:10:35;23.50;99.90
10129;DHT22;5104;50.720;7.044;2023-06-22T11:13:02;23.60;99.90
10129;DHT22;5104;50.720;7.044;2023-06-22T11:15:29;23.80;99.90
10129;DHT22;5104;50.720;7.044;2023-06-22T11:17:56;23.80;99.90
10129;DHT22;5104;50.720;7.044;2023-06-22T11:20:23;23.80;99.90
10129;DHT22;5104;50.720;7.044;2023-06-22T11:22:50;23.80;1.00
10129;DHT22;5104;50.720;7.044;2023-06-22T11:25:17;23.80;1.00
10129;DHT22;5104;50.720;7.044;2023-06-22T11:27:46;23.60;1.00
10129;DHT22;5104;50.720;7.044;2023-06-22T11:30:13;23.50;99.90
10129;DHT22;5104;50.720;7.044;2023-06-22T11:32:40;23.60;99.90
10129;DHT22;5104;50.720;7.044;2023-06-22T11:35:07;23.70;99.90
10129;DHT22;5104;50.720;7.044;2023-06-22T11:37:34;24.20;1.00
10129;DHT22;5104;50.720;7.044;2023-06-22T11:40:01;25.10;1.00
10129;DHT22;5104;50.720;7.044;2023-06-22T11:42:31;25.80;99.90
10129;DHT22;5104;50.720;7.044;2023-06-22T11:44:59;26.20;1.00
10129;DHT22;5104;50.720;7.044;2023-06-22T11:47:27;26.60;1.00
10129;DHT22;5104;50.720;7.044;2023-06-22T11:49:54;26.90;99.90
10129;DHT22;5104;50.720;7.044;2023-06-22T11:52:21;27.10;1.00
10129;DHT22;5104;50.720;7.044;2023-06-22T11:54:48;27.20;1.00
10129;DHT22;5104;50.720;7.044;2023-06-22T11:57:15;26.60;1.00
10129;DHT22;5104;50.720;7.044;2023-06-22T11:59:42;26.40;1.00
10129;DHT22;5104;50.720;7.044;2023-06-22T12:02:10;26.00;99.90
10129;DHT22;5104;50.720;7.044;2023-06-22T12:04:37;26.00;1.00
10129;DHT22;5104;50.720;7.044;2023-06-22T12:07:04;26.00;99.90
10129;DHT22;5104;50.720;7.044;2023-06-22T12:09:31;26.00;1.00
10129;DHT22;5104;50.720;7.044;2023-06-22T12:11:58;25.70;1.00
10129;DHT22;5104;50.720;7.044;2023-06-22T12:14:25;25.50;99.90
10129;DHT22;5104;50.720;7.044;2023-06-22T12:16:52;25.40;1.00
10129;DHT22;5104;50.720;7.044;2023-06-22T12:19:20;25.20;1.00
10129;DHT22;5104;50.720;7.044;2023-06-22T12:21:47;25.00;99.90
10129;DHT22;5104;50.720;7.044;2023-06-22T12:24:14;25.00;1.00
10129;DHT22;5104;50.720;7.044;2023-06-22T12:26:41;25.20;1.00
10129;DHT22;5104;50.720;7.044;2023-06-22T12:29:08;25.60;1.00
10129;DHT22;5104;50.720;7.044;2023-06-22T12:31:36;26.40;99.90
10129;DHT22;5104;50.720;7.044;2023-06-22T12:34:04;27.10;1.00
10129;DHT22;5104;50.720;7.044;2023-06-22T12:36:33;27.10;72.60
10129;DHT22;5104;50.720;7.044;2023-06-22T12:39:00;27.10;1.00
10129;DHT22;5104;50.720;7.044;2023-06-22T12:41:26;27.10;99.90
10129;DHT22;5104;50.720;7.044;2023-06-22T12:43:54;27.10;1.00
10129;DHT22;5104;50.720;7.044;2023-06-22T12:46:21;27.10;1.00
10129;DHT22;5104;50.720;7.044;2023-06-22T12:48:47;27.00;54.30
10129;DHT22;5104;50.720;7.044;2023-06-22T12:51:20;26.90;1.00
10129;DHT22;5104;50.720;7.044;2023-06-22T12:53:49;26.90;1.00
10129;DHT22;5104;50.720;7.044;2023-06-22T12:56:16;26.90;99.90
10129;DHT22;5104;50.720;7.044;2023-06-22T12:58:43;27.10;1.00
10129;DHT22;5104;50.720;7.044;2023-06-22T13:01:10;27.30;1.00
10129;DHT22;5104;50.720;7.044;2023-06-22T13:03:37;27.40;99.90
10129;DHT22;5104;50.720;7.044;2023-06-22T13:06:04;27.60;1.00
10129;DHT22;5104;50.720;7.044;2023-06-22T13:08:31;27.90;1.00
10129;DHT22;5104;50.720;7.044;2023-06-22T13:11:00;27.90;85.00
10129;DHT22;5104;50.720;7.044;2023-06-22T13:13:26;27.80;99.90
10129;DHT22;5104;50.720;7.044;2023-06-22T13:15:54;27.80;3.20
10129;DHT22;5104;50.720;7.044;2023-06-22T13:18:21;27.70;1.00
10129;DHT22;5104;50.720;7.044;2023-06-22T13:20:48;27.80;1.00
10129;DHT22;5104;50.720;7.044;2023-06-22T13:23:16;27.80;99.90
10129;DHT22;5104;50.720;7.044;2023-06-22T13:25:43;28.10;99.90
10129;DHT22;5104;50.720;7.044;2023-06-22T13:28:11;27.80;89.80
10129;DHT22;5104;50.720;7.044;2023-06-22T13:30:39;28.20;1.00
10129;DHT22;5104;50.720;7.044;2023-06-22T13:33:06;28.40;1.00
10129;DHT22;5104;50.720;7.044;2023-06-22T13:35:34;28.50;99.90
10129;DHT22;5104;50.720;7.044;2023-06-22T13:38:01;28.80;99.90
10129;DHT22;5104;50.720;7.044;2023-06-22T13:40:28;28.70;99.90
10129;DHT22;5104;50.720;7.044;2023-06-22T13:42:55;28.60;99.90
10129;DHT22;5104;50.720;7.044;2023-06-22T13:45:24;28.60;46.80
10129;DHT22;5104;50.720;7.044;2023-06-22T13:47:51;28.60;29.50
10129;DHT22;5104;50.720;7.044;2023-06-22T13:50:18;28.70;99.90
10129;DHT22;5104;50.720;7.044;2023-06-22T13:52:45;28.60;95.40
10129;DHT22;5104;50.720;7.044;2023-06-22T13:55:12;28.50;31.10
10129;DHT22;5104;50.720;7.044;2023-06-22T13:57:40;28.30;20.00
10129;DHT22;5104;50.720;7.044;2023-06-22T14:00:07;28.10;99.90
10129;DHT22;5104;50.720;7.044;2023-06-22T14:02:36;28.10;99.90
10129;DHT22;5104;50.720;7.044;2023-06-22T14:05:03;28.00;99.90
10129;DHT22;5104;50.720;7.044;2023-06-22T14:07:30;27.90;99.90
10129;DHT22;5104;50.720;7.044;2023-06-22T14:09:57;27.90;99.90
10129;DHT22;5104;50.720;7.044;2023-06-22T14:12:24;27.60;1.00
10129;DHT22;5104;50.720;7.044;2023-06-22T14:14:51;27.40;1.00
10129;DHT22;5104;50.720;7.044;2023-06-22T14:17:18;27.30;1.00
10129;DHT22;5104;50.720;7.044;2023-06-22T14:19:50;27.30;1.00
10129;DHT22;5104;50.720;7.044;2023-06-22T14:22:18;27.30;1.00
10129;DHT22;5104;50.720;7.044;2023-06-22T14:24:45;27.20;1.00
10129;DHT22;5104;50.720;7.044;2023-06-22T14:27:12;26.90;1.00
10129;DHT22;5104;50.720;7.044;2023-06-22T14:29:39;26.50;1.00
10129;DHT22;5104;50.720;7.044;2023-06-22T14:32:07;26.10;99.90
10129;DHT22;5104;50.720;7.044;2023-06-22T14:34:34;25.80;99.90
10129;DHT22;5104;50.720;7.044;2023-06-22T14:37:06;25.50;1.00
10129;DHT22;5104;50.720;7.044;2023-06-22T14:39:35;25.20;1.00
10129;DHT22;5104;50.720;7.044;2023-06-22T14:42:02;25.00;1.00
10129;DHT22;5104;50.720;7.044;2023-06-22T14:44:29;24.80;1.00
10129;DHT22;5104;50.720;7.044;2023-06-22T14:46:56;24.60;1.00
10129;DHT22;5104;50.720;7.044;2023-06-22T14:49:23;24.30;99.90
10129;DHT22;5104;50.720;7.044;2023-06-22T14:51:50;24.00;99.90
10129;DHT22;5104;50.720;7.044;2023-06-22T14:54:19;23.60;1.00
10129;DHT22;5104;50.720;7.044;2023-06-22T14:56:47;23.30;99.90
10129;DHT22;5104;50.720;7.044;2023-06-22T14:59:14;23.00;99.90
10129;DHT22;5104;50.720;7.044;2023-06-22T15:01:40;22.80;99.90
10129;DHT22;5104;50.720;7.044;2023-06-22T15:04:07;22.60;99.90
10129;DHT22;5104;50.720;7.044;2023-06-22T15:06:34;22.50;99.90
10129;DHT22;5104;50.720;7.044;2023-06-22T15:09:01;22.40;99.90
10129;DHT22;5104;50.720;7.044;2023-06-22T15:11:30;22.30;99.90
10129;DHT22;5104;50.720;7.044;2023-06-22T15:13:59;22.20;99.90
10129;DHT22;5104;50.720;7.044;2023-06-22T15:16:26;22.20;99.90
10129;DHT22;5104;50.720;7.044;2023-06-22T15:18:53;22.20;99.90
10129;DHT22;5104;50.720;7.044;2023-06-22T15:21:20;22.20;99.90
10129;DHT22;5104;50.720;7.044;2023-06-22T15:23:47;22.20;99.90
10129;DHT22;5104;50.720;7.044;2023-06-22T15:26:14;22.10;99.90
10129;DHT22;5104;50.720;7.044;2023-06-22T15:28:43;22.00;99.90
10129;DHT22;5104;50.720;7.044;2023-06-22T15:31:10;22.00;99.90
10129;DHT22;5104;50.720;7.044;2023-06-22T15:33:36;22.00;99.90
10129;DHT22;5104;50.720;7.044;2023-06-22T15:36:04;22.00;99.90
10129;DHT22;5104;50.720;7.044;2023-06-22T15:38:32;21.90;99.90
10129;DHT22;5104;50.720;7.044;2023-06-22T15:40:59;21.90;99.90
10129;DHT22;5104;50.720;7.044;2023-06-22T15:43:26;21.80;99.90
10129;DHT22;5104;50.720;7.044;2023-06-22T15:45:54;21.80;99.90
10129;DHT22;5104;50.720;7.044;2023-06-22T15:48:22;21.80;99.90
10129;DHT22;5104;50.720;7.044;2023-06-22T15:50:49;21.80;99.90
10129;DHT22;5104;50.720;7.044;2023-06-22T15:53:15;21.80;99.90
10129;DHT22;5104;50.720;7.044;2023-06-22T15:55:42;21.80;99.90
10129;DHT22;5104;50.720;7.044;2023-06-22T15:58:09;21.80;99.90